»·PEaware :: N2570U KVCV-KWJF

N2570U :: KVCV-KWJF

FLIGHT INFORMATION

Flight Status: Arrived
Operator: Privately registered:
United States
More flights under this callsign
Pilot: Scott W. (31825)
Aircraft: PIPER PA-28 CHEROKEE ARCHER
(P28A)
More flights by this aircraft type
Origin: KVCV Socal Logistics
United States
Destination: KWJF Gen Fox
United States
More flights between these airports :: More routes between these airports
Route:
File this flight plan on PilotEdge
Remarks:
Altitude:
(Current/Filed)
4,500ft
Speed:
(Current/Filed)
105kts
Departed: 12-Nov-20 04:40 PM
Arrived: 12-Nov-20 05:05 PM
Distance/Time
Traveled:
42nm/0:25
Distance/Time
To Go:
Arrived

Flight Plot

Page will automatically refresh every two minutes.


Map Options




Map Legend


Flown Route
Filed Route
Departure Airport
Arrival Airport
Navaid (VOR, NDB)
Fix

Horizontal Profiles

Position Reports

Time Latitude Longitude Heading Altitude Ground
Speed
12-Nov-20 16:23 34.591874 -117.369191 180 2859ft 0kts
12-Nov-20 16:23 34.591874 -117.369191 180 2859ft 0kts
12-Nov-20 16:24 34.591874 -117.369191 180 2859ft 0kts
12-Nov-20 16:25 34.591874 -117.369191 180 2859ft 0kts
12-Nov-20 16:26 34.591874 -117.369191 180 2859ft 0kts
12-Nov-20 16:27 34.591874 -117.369191 180 2859ft 0kts
12-Nov-20 16:28 34.591874 -117.369191 180 2859ft 0kts
12-Nov-20 16:29 34.591874 -117.369191 180 2859ft 0kts
12-Nov-20 16:30 34.591874 -117.369191 180 2859ft 0kts
12-Nov-20 16:31 34.592586 -117.369169 343 2858ft 0kts
12-Nov-20 16:32 34.592586 -117.369169 343 2858ft 0kts
12-Nov-20 16:33 34.593208 -117.368801 53 2858ft 10kts
12-Nov-20 16:34 34.597723 -117.366933 11 2846ft 23kts
12-Nov-20 16:35 34.598707 -117.366708 13 2844ft 0kts
12-Nov-20 16:36 34.598707 -117.366708 13 2844ft 0kts
12-Nov-20 16:37 34.598707 -117.366708 13 2844ft 0kts
12-Nov-20 16:38 34.600151 -117.366932 237 2841ft 8kts
12-Nov-20 16:39 34.588807 -117.380944 228 3249ft 84kts
12-Nov-20 16:40 34.589584 -117.408784 274 3989ft 87kts
12-Nov-20 16:41 34.596430 -117.438358 292 4471ft 101kts
12-Nov-20 16:42 34.607178 -117.472526 292 4496ft 111kts
12-Nov-20 16:43 34.619725 -117.506774 295 4535ft 110kts
12-Nov-20 16:44 34.630157 -117.541912 284 4547ft 113kts
12-Nov-20 16:45 34.638453 -117.578309 286 4444ft 109kts
12-Nov-20 16:46 34.645664 -117.613345 279 4466ft 104kts
12-Nov-20 16:47 34.650989 -117.649542 283 4543ft 108kts
12-Nov-20 16:48 34.658865 -117.686030 286 4638ft 104kts
12-Nov-20 16:49 34.667845 -117.724910 288 4480ft 110kts
12-Nov-20 16:50 34.679280 -117.762310 293 4370ft 111kts
12-Nov-20 16:51 34.691305 -117.798399 289 4350ft 110kts
12-Nov-20 16:52 34.699979 -117.833801 282 4455ft 107kts
12-Nov-20 16:53 34.706842 -117.870538 283 4477ft 111kts
12-Nov-20 16:54 34.714455 -117.908450 284 4460ft 111kts
12-Nov-20 16:55 34.722495 -117.947029 289 4440ft 111kts
12-Nov-20 16:56 34.727342 -117.985169 275 4419ft 112kts
12-Nov-20 16:57 34.730370 -118.024401 278 4397ft 111kts
12-Nov-20 16:58 34.734318 -118.063275 280 4372ft 111kts
12-Nov-20 16:59 34.740882 -118.099150 289 4216ft 101kts
12-Nov-20 17:00 34.748049 -118.131181 289 3949ft 92kts
12-Nov-20 17:01 34.757138 -118.158719 272 3221ft 74kts
12-Nov-20 17:02 34.750213 -118.181812 255 2786ft 71kts
12-Nov-20 17:03 34.744671 -118.205004 251 2381ft 69kts
12-Nov-20 17:04 34.741639 -118.214549 213 2339ft 9kts
12-Nov-20 17:05 34.741277 -118.214776 204 2339ft 0kts
12-Nov-20 17:06 34.740896 -118.215554 252 2340ft 12kts
12-Nov-20 17:07 34.739271 -118.216948 253 2343ft 0kts
12-Nov-20 17:08 34.739271 -118.216950 253 2343ft 0kts
12-Nov-20 17:09 34.739271 -118.216950 253 2342ft 0kts
12-Nov-20 17:10 34.739271 -118.216950 253 2342ft 0kts
12-Nov-20 17:11 34.739271 -118.216950 253 2342ft 0kts

Navigation Log

Ident Type
Flight plan parsing failed, navigation log unavailable